sim
Sign-in with your pilot id or email,
or register
Callsign
Passwort

Schedule Details

Flight Number: EWG1700 (1)
Departure: Munich Airport (EDDM) at 16:20
Arrival: Thessaloniki International Airport (LGTS) at 18:20
Route: Eurowings Passenger Schedule. Enter filed route here before submitting Pirep.

Weather Information
Getting current METAR information for EDDM 211620Z 28004KT 9999 FEW043 11/03 Q1027 NOSIG
Getting current METAR information for LGTS 211620Z 36006KT CAVOK 14/00 Q1022 NOSIG

Schedule Frequency

Route Map